Time;durP1;ratioP1;P1;durP2;ratioP2;P2;SDS_P1;SDS_P2;PMS_P1;PMS_P2;Temp;Humidity;BMP_temperature;BMP_pressure;BME280_temperature;BME280_humidity;BME280_pressure;Samples;Min_cycle;Max_cycle;Signal;HPM_P1;HPM_P2
2021/03/25 00:01:28;;;;;;;16.67;9.10;;;7.40;98.60;;;;;;5028181;28;20120;-76
2021/03/25 00:03:57;;;;;;;14.10;7.45;;;9.00;99.00;;;;;;5027962;28;20517;-76
2021/03/25 00:06:24;;;;;;;14.10;7.63;;;7.30;98.60;;;;;;5042603;28;20394;-78
2021/03/25 00:08:50;;;;;;;11.52;7.13;;;7.30;98.80;;;;;;5025605;28;20502;-77
2021/03/25 00:11:16;;;;;;;15.55;8.18;;;7.30;98.70;;;;;;5028356;28;20132;-76
2021/03/25 00:13:42;;;;;;;15.15;7.47;;;;;;;;;;5024534;28;20590;-77
2021/03/25 00:16:08;;;;;;;14.32;7.13;;;7.20;98.70;;;;;;5038952;28;20044;-77
2021/03/25 00:18:35;;;;;;;14.35;7.68;;;;;;;;;;5044126;28;20067;-78
2021/03/25 00:21:01;;;;;;;13.02;7.38;;;7.10;98.90;;;;;;5019431;28;20033;-77
2021/03/25 00:23:27;;;;;;;16.02;8.15;;;7.10;99.10;;;;;;5027973;28;20470;-78
2021/03/25 00:25:55;;;;;;;20.27;8.60;;;7.10;99.20;;;;;;5043387;28;20029;-77
2021/03/25 00:28:21;;;;;;;15.27;8.77;;;7.10;99.10;;;;;;5023808;28;20092;-78
2021/03/25 00:30:47;;;;;;;14.32;8.13;;;7.10;99.20;;;;;;5024899;28;20037;-78
2021/03/25 00:33:16;;;;;;;14.70;8.32;;;9.60;99.80;;;;;;5043069;28;20491;-77
2021/03/25 00:35:42;;;;;;;17.02;8.40;;;7.10;99.20;;;;;;5038964;28;20029;-77
2021/03/25 00:38:09;;;;;;;14.00;8.02;;;7.00;99.10;;;;;;5041277;28;20025;-76
2021/03/25 00:40:35;;;;;;;12.45;7.40;;;7.00;99.40;;;;;;5032813;28;20083;-76
2021/03/25 00:43:01;;;;;;;12.55;7.20;;;7.00;99.30;;;;;;5046343;28;20388;-77
2021/03/25 00:45:47;;;;;;;14.75;7.78;;;6.90;99.40;;;;;;5026633;28;20116;-77
2021/03/25 00:48:15;;;;;;;11.82;7.38;;;6.90;99.50;;;;;;5041698;28;20492;-77
2021/03/25 00:50:44;;;;;;;15.02;7.55;;;6.80;99.60;;;;;;5030235;28;20037;-77
2021/03/25 00:53:12;;;;;;;12.20;7.70;;;6.80;99.30;;;;;;5023051;28;20884;-77
2021/03/25 00:55:38;;;;;;;15.93;8.30;;;;;;;;;;5025860;28;20025;-77
2021/03/25 00:58:04;;;;;;;16.00;9.07;;;6.70;99.40;;;;;;5027624;28;20052;-77
2021/03/25 01:00:33;;;;;;;16.35;8.55;;;6.70;99.60;;;;;;5026685;28;20029;-78
2021/03/25 01:02:59;;;;;;;18.35;8.98;;;;;;;;;;5017263;28;20311;-77
2021/03/25 01:05:26;;;;;;;15.30;8.20;;;6.70;99.70;;;;;;5025113;28;20040;-78
2021/03/25 01:07:52;;;;;;;15.38;9.02;;;;;;;;;;5024084;28;20071;-78
2021/03/25 01:10:30;;;;;;;16.10;8.38;;;6.70;99.70;;;;;;5020820;28;20029;-77
2021/03/25 01:12:57;;;;;;;16.80;9.52;;;6.70;99.60;;;;;;5041527;28;20030;-77
2021/03/25 01:15:23;;;;;;;17.73;9.30;;;;;;;;;;5024642;28;20138;-78
2021/03/25 01:17:51;;;;;;;15.95;9.05;;;6.70;99.80;;;;;;5028369;28;20040;-78
2021/03/25 01:20:22;;;;;;;13.07;8.35;;;8.60;99.90;;;;;;5036463;28;20502;-77
2021/03/25 01:22:48;;;;;;;17.15;9.02;;;6.70;99.80;;;;;;5043353;28;20037;-77
2021/03/25 01:25:15;;;;;;;16.73;9.00;;;6.70;99.90;;;;;;5023949;28;20411;-77
2021/03/25 01:27:41;;;;;;;18.02;9.30;;;6.70;99.90;;;;;;5028167;28;20026;-77
2021/03/25 01:30:07;;;;;;;18.95;9.57;;;8.20;99.90;;;;;;5024965;28;20029;-77
2021/03/25 01:32:32;;;;;;;17.23;9.20;;;6.60;99.80;;;;;;5026025;28;20057;-77
2021/03/25 01:34:58;;;;;;;17.65;9.57;;;6.60;99.90;;;;;;5023844;28;20064;-80
2021/03/25 01:37:24;;;;;;;17.83;8.75;;;6.60;99.90;;;;;;5030230;28;20052;-79
2021/03/25 01:39:50;;;;;;;17.73;9.45;;;6.50;99.90;;;;;;5038062;28;20098;-76
2021/03/25 01:42:28;;;;;;;16.52;9.15;;;8.40;99.90;;;;;;5023814;28;20261;-77
2021/03/25 01:44:53;;;;;;;18.65;9.77;;;6.30;99.80;;;;;;5029476;28;20043;-77
2021/03/25 01:47:22;;;;;;;19.52;10.45;;;6.40;99.90;;;;;;5020298;28;20033;-78
2021/03/25 01:49:47;;;;;;;19.63;9.63;;;6.40;99.90;;;;;;5024148;28;20037;-77
2021/03/25 01:52:27;;;;;;;19.00;9.73;;;6.30;99.90;;;;;;5028515;28;20021;-77
2021/03/25 01:55:16;;;;;;;17.83;9.93;;;6.30;99.90;;;;;;5026432;28;20080;-77
2021/03/25 01:58:13;;;;;;;19.10;9.25;;;6.30;99.90;;;;;;5023561;28;20033;-77
2021/03/25 02:00:38;;;;;;;17.95;9.57;;;6.20;99.90;;;;;;5044132;28;20025;-79
2021/03/25 02:03:24;;;;;;;15.93;9.52;;;6.20;99.90;;;;;;5024494;28;20514;-76
2021/03/25 02:06:17;;;;;;;17.35;9.68;;;6.20;99.90;;;;;;5028061;28;20045;-78
2021/03/25 02:09:01;;;;;;;19.52;9.85;;;6.20;99.90;;;;;;5024500;28;20033;-78
2021/03/25 02:11:50;;;;;;;19.52;10.15;;;6.20;99.90;;;;;;5041331;28;20757;-77
2021/03/25 02:14:29;;;;;;;18.08;10.00;;;6.10;99.90;;;;;;5046325;28;20033;-78
2021/03/25 02:17:05;;;;;;;19.33;10.20;;;6.10;99.90;;;;;;5042710;28;20028;-78
2021/03/25 02:19:56;;;;;;;17.98;9.80;;;6.10;99.90;;;;;;5026143;28;20104;-78
2021/03/25 02:23:00;;;;;;;18.43;9.73;;;6.10;99.90;;;;;;5049803;28;20029;-78
2021/03/25 02:25:45;;;;;;;18.75;9.23;;;6.10;99.90;;;;;;5032529;28;20285;-78
2021/03/25 02:28:38;;;;;;;18.85;9.07;;;6.10;99.90;;;;;;5033274;28;20018;-79
2021/03/25 02:31:24;;;;;;;15.38;9.07;;;6.10;99.90;;;;;;5027463;28;20029;-75
2021/03/25 02:33:53;;;;;;;18.40;9.75;;;6.10;99.90;;;;;;5026504;28;20033;-77
2021/03/25 02:36:27;;;;;;;17.65;10.18;;;6.10;99.90;;;;;;5029981;28;20487;-77
2021/03/25 02:38:57;;;;;;;17.90;9.25;;;6.00;99.90;;;;;;5030263;28;20155;-77
2021/03/25 02:41:29;;;;;;;18.20;10.00;;;6.00;99.90;;;;;;5032476;28;20064;-78
2021/03/25 02:44:12;;;;;;;19.23;9.70;;;5.90;99.90;;;;;;5031670;28;20276;-77
2021/03/25 02:46:41;;;;;;;17.25;9.63;;;6.00;99.90;;;;;;5029013;28;20117;-78
2021/03/25 02:49:13;;;;;;;16.88;9.90;;;5.90;99.90;;;;;;5031642;28;20067;-77
2021/03/25 02:51:51;;;;;;;16.30;9.27;;;5.90;99.90;;;;;;5030943;28;20030;-77
2021/03/25 02:54:17;;;;;;;18.60;10.00;;;5.90;99.90;;;;;;5032623;28;20083;-77
2021/03/25 02:57:13;;;;;;;13.80;8.57;;;5.90;99.90;;;;;;5027580;28;21122;-78
2021/03/25 02:59:44;;;;;;;19.92;9.48;;;5.80;99.90;;;;;;5031706;28;20120;-78
2021/03/25 03:02:30;;;;;;;18.88;10.07;;;5.80;99.90;;;;;;5031999;28;20068;-77
2021/03/25 03:05:01;;;;;;;18.23;9.88;;;5.80;99.90;;;;;;5044661;28;20029;-77
2021/03/25 03:07:39;;;;;;;19.02;10.50;;;5.80;99.90;;;;;;5029369;28;20472;-76
2021/03/25 03:10:09;;;;;;;18.75;9.98;;;5.80;99.90;;;;;;5026727;28;20094;-77
2021/03/25 03:12:45;;;;;;;21.80;10.47;;;5.80;99.90;;;;;;5032751;28;20091;-78
2021/03/25 03:15:29;;;;;;;17.75;10.40;;;5.80;99.90;;;;;;5027004;28;20280;-77
2021/03/25 03:18:06;;;;;;;20.13;11.25;;;5.80;99.90;;;;;;5026991;28;20033;-80
2021/03/25 03:20:48;;;;;;;19.20;10.40;;;5.80;99.90;;;;;;5045097;28;20096;-78
2021/03/25 03:23:13;;;;;;;21.35;10.90;;;5.80;99.90;;;;;;5029237;28;20026;-77
2021/03/25 03:25:39;;;;;;;17.10;10.50;;;5.80;99.90;;;;;;5044760;28;20053;-76
2021/03/25 03:28:35;;;;;;;20.13;11.55;;;5.80;99.90;;;;;;5030827;28;20028;-78
2021/03/25 03:31:08;;;;;;;18.20;10.23;;;5.70;99.90;;;;;;5030722;28;20056;-77
2021/03/25 03:33:43;;;;;;;21.20;10.77;;;5.70;99.90;;;;;;5028831;28;20501;-77
2021/03/25 03:36:13;;;;;;;18.63;10.82;;;5.60;99.90;;;;;;5030948;28;20025;-77
2021/03/25 03:39:01;;;;;;;19.77;10.77;;;5.60;99.90;;;;;;5028755;28;20502;-77
2021/03/25 03:41:34;;;;;;;18.80;10.98;;;5.60;99.90;;;;;;5019269;28;20056;-77
2021/03/25 03:44:04;;;;;;;18.48;11.18;;;5.60;99.90;;;;;;5027326;28;20032;-77
2021/03/25 03:46:30;;;;;;;20.48;11.48;;;5.60;99.90;;;;;;5029692;28;20073;-78
2021/03/25 03:49:00;;;;;;;21.10;10.95;;;5.50;99.90;;;;;;5025177;28;20115;-78
2021/03/25 03:51:32;;;;;;;19.65;10.70;;;5.60;99.90;;;;;;5031100;28;20029;-80
2021/03/25 03:54:01;;;;;;;19.83;11.68;;;5.60;99.90;;;;;;5031132;28;20045;-78
2021/03/25 03:56:49;;;;;;;23.48;11.32;;;5.60;99.90;;;;;;5044706;28;20029;-76
2021/03/25 03:59:42;;;;;;;19.65;10.45;;;5.60;99.90;;;;;;5024977;28;20088;-77
2021/03/25 04:02:27;;;;;;;19.80;9.88;;;5.50;99.90;;;;;;5024947;28;20378;-79
2021/03/25 04:05:22;;;;;;;19.73;11.00;;;5.50;99.90;;;;;;5030805;28;20040;-79
2021/03/25 04:07:56;;;;;;;18.38;10.50;;;5.50;99.90;;;;;;5042329;28;20389;-79
2021/03/25 04:10:29;;;;;;;20.30;10.57;;;5.40;99.90;;;;;;5033464;28;20502;-76
2021/03/25 04:13:00;;;;;;;19.77;10.32;;;5.40;99.90;;;;;;5035270;28;20029;-77
2021/03/25 04:15:28;;;;;;;21.58;10.98;;;5.40;99.90;;;;;;5028586;28;20438;-78
2021/03/25 04:18:06;;;;;;;21.33;11.05;;;5.40;99.90;;;;;;5028143;28;20060;-78
2021/03/25 04:20:35;;;;;;;21.70;11.50;;;5.40;99.90;;;;;;5027353;28;20510;-76
2021/03/25 04:23:09;;;;;;;24.77;11.15;;;5.40;99.90;;;;;;5047450;28;20053;-78
2021/03/25 04:25:44;;;;;;;19.92;11.15;;;5.40;99.90;;;;;;5032672;28;20029;-80
2021/03/25 04:28:21;;;;;;;22.55;12.38;;;5.40;99.90;;;;;;5034981;28;20502;-77
2021/03/25 04:30:52;;;;;;;24.60;12.00;;;5.30;99.90;;;;;;5029158;28;20487;-78
2021/03/25 04:33:20;;;;;;;21.85;11.85;;;5.20;99.90;;;;;;5037801;28;20021;-78
2021/03/25 04:35:46;;;;;;;20.73;11.98;;;5.20;99.90;;;;;;5029701;28;20381;-77
2021/03/25 04:38:16;;;;;;;20.92;12.73;;;5.20;99.90;;;;;;5033349;28;20034;-79
2021/03/25 04:40:43;;;;;;;23.10;12.45;;;5.10;99.90;;;;;;5024595;28;20587;-78
2021/03/25 04:43:10;;;;;;;21.83;12.00;;;5.10;99.90;;;;;;5027861;28;20025;-78
2021/03/25 04:45:58;;;;;;;20.65;11.70;;;5.20;99.90;;;;;;5036844;28;20021;-77
2021/03/25 04:48:27;;;;;;;25.52;12.75;;;5.10;99.90;;;;;;5025811;28;20072;-78
2021/03/25 04:51:15;;;;;;;23.00;12.32;;;5.00;99.90;;;;;;5033585;28;20120;-77
2021/03/25 04:53:42;;;;;;;26.13;12.88;;;5.00;99.90;;;;;;5047476;28;20045;-77
2021/03/25 04:56:16;;;;;;;19.45;12.02;;;4.90;99.90;;;;;;5029788;28;20026;-77
2021/03/25 04:58:51;;;;;;;23.90;12.40;;;4.80;99.90;;;;;;5028329;28;20486;-77
2021/03/25 05:01:22;;;;;;;21.20;11.98;;;4.80;99.90;;;;;;5027704;28;20098;-78
2021/03/25 05:03:50;;;;;;;23.48;12.27;;;4.80;99.90;;;;;;5034950;28;20022;-78
2021/03/25 05:06:21;;;;;;;19.63;12.10;;;4.90;99.90;;;;;;5028700;28;20036;-78
2021/03/25 05:08:49;;;;;;;26.42;12.25;;;4.90;99.90;;;;;;5030431;28;20025;-78
2021/03/25 05:11:19;;;;;;;23.13;12.60;;;4.90;99.90;;;;;;5026986;28;20088;-77
2021/03/25 05:13:46;;;;;;;22.33;12.10;;;4.90;99.90;;;;;;5028875;28;20021;-77
2021/03/25 05:16:32;;;;;;;20.52;11.85;;;4.90;99.90;;;;;;5030510;28;20089;-79
2021/03/25 05:19:45;;;;;;;26.00;13.20;;;4.90;99.90;;;;;;5028730;28;20033;-78
2021/03/25 05:22:26;;;;;;;25.50;12.40;;;5.00;99.90;;;;;;5028352;28;20048;-78
2021/03/25 05:25:14;;;;;;;23.10;12.30;;;5.00;99.90;;;;;;5027332;28;20100;-78
2021/03/25 05:27:46;;;;;;;21.05;11.98;;;5.00;99.90;;;;;;5046036;28;20099;-79
2021/03/25 05:30:21;;;;;;;23.33;13.38;;;5.00;99.90;;;;;;5043784;28;20033;-79
2021/03/25 05:32:50;;;;;;;23.38;12.50;;;5.00;99.90;;;;;;5049226;28;20033;-78
2021/03/25 05:35:22;;;;;;;20.15;12.02;;;5.10;99.90;;;;;;5035707;28;20443;-78
2021/03/25 05:37:48;;;;;;;25.73;12.38;;;5.10;99.90;;;;;;5033446;28;20037;-78
2021/03/25 05:40:36;;;;;;;23.40;12.30;;;5.20;99.90;;;;;;5025119;28;20040;-79
2021/03/25 05:43:26;;;;;;;24.73;12.02;;;5.20;99.90;;;;;;5038304;28;20049;-77
2021/03/25 05:46:01;;;;;;;23.73;11.77;;;5.20;99.90;;;;;;5029732;28;20037;-78
2021/03/25 05:48:50;;;;;;;22.77;12.50;;;5.20;99.90;;;;;;5025293;28;20141;-76
2021/03/25 05:51:43;;;;;;;20.23;11.65;;;5.20;99.90;;;;;;5045250;28;20029;-76
2021/03/25 05:54:34;;;;;;;23.90;11.82;;;5.30;99.90;;;;;;5039689;28;20029;-80
2021/03/25 05:57:11;;;;;;;27.95;13.38;;;5.30;99.90;;;;;;5027933;28;20030;-79
2021/03/25 05:59:46;;;;;;;23.00;11.20;;;5.40;99.90;;;;;;5027886;28;20025;-78
2021/03/25 06:02:38;;;;;;;25.20;13.02;;;5.50;99.90;;;;;;5033923;28;20060;-77
2021/03/25 06:05:05;;;;;;;28.55;12.80;;;5.60;99.90;;;;;;5021271;28;20041;-79
2021/03/25 06:07:40;;;;;;;20.40;11.88;;;;;;;;;;5033536;28;20029;-82
2021/03/25 06:10:34;;;;;;;29.42;11.95;;;4.40;99.90;;;;;;5036090;28;20053;-80
2021/03/25 06:13:35;;;;;;;29.45;12.73;;;5.80;99.90;;;;;;5030855;28;20543;-78
2021/03/25 06:16:15;;;;;;;28.60;13.27;;;5.80;99.90;;;;;;5040198;28;20036;-79
2021/03/25 06:19:08;;;;;;;26.52;12.85;;;5.90;99.90;;;;;;5024112;28;20136;-80
2021/03/25 06:22:08;;;;;;;27.83;12.95;;;5.90;99.90;;;;;;5030116;28;20034;-77
2021/03/25 06:25:03;;;;;;;27.80;12.68;;;5.90;99.90;;;;;;5024476;28;20030;-82
2021/03/25 06:28:03;;;;;;;24.85;11.95;;;5.90;99.90;;;;;;5043291;28;20560;-79
2021/03/25 06:30:39;;;;;;;31.85;13.57;;;6.00;99.90;;;;;;5028127;28;20029;-78
2021/03/25 06:33:15;;;;;;;32.65;12.30;;;6.00;99.90;;;;;;5039745;28;20521;-78
2021/03/25 06:35:49;;;;;;;34.15;13.15;;;6.10;99.90;;;;;;5029746;28;20044;-80
2021/03/25 06:38:37;;;;;;;32.33;12.25;;;6.10;99.90;;;;;;5028721;28;20025;-80
2021/03/25 06:41:26;;;;;;;25.88;12.05;;;6.20;99.90;;;;;;5022009;28;20030;-78
2021/03/25 06:44:01;;;;;;;30.58;13.05;;;6.20;99.90;;;;;;5027938;28;20381;-78
2021/03/25 06:46:38;;;;;;;36.28;12.63;;;6.20;99.90;;;;;;5020230;28;20044;-78
2021/03/25 06:49:26;;;;;;;30.02;11.77;;;6.20;99.90;;;;;;5047113;28;20026;-81
2021/03/25 06:51:53;;;;;;;31.27;12.68;;;6.30;99.90;;;;;;5018908;28;20034;-76
2021/03/25 06:54:26;;;;;;;29.67;12.25;;;6.40;99.90;;;;;;5029409;28;20049;-78
2021/03/25 06:56:56;;;;;;;30.80;13.25;;;6.50;99.70;;;;;;5028753;28;20033;-81
2021/03/25 06:59:39;;;;;;;30.98;13.35;;;6.40;99.90;;;;;;5031854;28;20033;-78
2021/03/25 07:02:15;;;;;;;30.65;13.00;;;6.60;99.90;;;;;;5028862;28;20251;-80
2021/03/25 07:04:44;;;;;;;30.85;13.50;;;6.60;99.60;;;;;;5025125;28;20025;-78
2021/03/25 07:07:18;;;;;;;30.42;12.82;;;6.60;99.50;;;;;;5029693;28;20017;-80
2021/03/25 07:09:44;;;;;;;29.90;12.85;;;6.70;99.30;;;;;;5029315;28;20056;-78
2021/03/25 07:12:20;;;;;;;29.17;12.48;;;6.70;99.60;;;;;;5028251;28;20103;-81
2021/03/25 07:14:50;;;;;;;27.35;12.63;;;6.70;99.00;;;;;;5029877;28;20025;-79
2021/03/25 07:17:22;;;;;;;30.90;13.43;;;6.80;99.30;;;;;;5044305;28;20025;-81
2021/03/25 07:19:50;;;;;;;27.50;13.18;;;6.90;98.80;;;;;;5028910;28;20033;-80
2021/03/25 07:22:23;;;;;;;30.10;14.88;;;7.10;98.70;;;;;;5028481;28;20033;-78
2021/03/25 07:24:50;;;;;;;32.00;13.82;;;7.20;98.20;;;;;;5025055;28;20761;-77
2021/03/25 07:27:21;;;;;;;29.58;13.70;;;7.30;98.20;;;;;;5026973;28;20083;-83
2021/03/25 07:29:56;;;;;;;24.08;12.30;;;7.40;97.70;;;;;;5045648;28;20033;-80
2021/03/25 07:32:49;;;;;;;22.25;11.10;;;7.40;97.90;;;;;;5028307;28;20068;-81
2021/03/25 07:35:34;;;;;;;21.70;11.25;;;7.50;97.40;;;;;;5025970;28;20037;-81
2021/03/25 07:38:15;;;;;;;19.55;10.93;;;7.60;97.10;;;;;;5033127;28;20026;-81
2021/03/25 07:40:43;;;;;;;22.88;11.10;;;7.60;97.20;;;;;;5027785;28;20029;-80
2021/03/25 07:44:08;;;;;;;22.30;11.00;;;9.70;97.60;;;;;;5024796;28;20775;-79
2021/03/25 07:46:46;;;;;;;21.10;10.55;;;8.10;96.20;;;;;;4975917;28;20029;-80
2021/03/25 07:49:12;;;;;;;22.15;11.10;;;8.20;96.40;;;;;;5029117;28;20028;-77
2021/03/25 07:51:49;;;;;;;26.42;10.57;;;8.40;95.70;;;;;;5041514;28;20041;-83
2021/03/25 07:54:41;;;;;;;26.25;10.75;;;8.40;95.10;;;;;;5043894;28;20037;-79
2021/03/25 07:57:12;;;;;;;30.33;11.23;;;8.60;94.80;;;;;;5021796;28;20061;-82
2021/03/25 07:59:52;;;;;;;23.70;11.70;;;8.60;94.80;;;;;;5027255;28;20033;-80
2021/03/25 08:02:33;;;;;;;25.80;11.63;;;8.60;94.90;;;;;;5039542;28;20053;-78
2021/03/25 08:05:21;;;;;;;29.67;13.32;;;8.80;94.80;;;;;;5024079;28;20028;-80
2021/03/25 08:07:49;;;;;;;28.67;12.48;;;9.00;94.50;;;;;;5043724;28;20044;-77
2021/03/25 08:10:34;;;;;;;31.13;12.10;;;;;;;;;;5027655;28;20044;-83
2021/03/25 08:13:11;;;;;;;25.40;11.73;;;9.50;93.40;;;;;;5037556;28;20036;-78
2021/03/25 08:15:48;;;;;;;25.92;12.00;;;9.50;93.70;;;;;;5020543;28;20041;-80
2021/03/25 08:18:34;;;;;;;21.88;12.30;;;9.70;92.90;;;;;;5020330;28;20036;-82
2021/03/25 08:21:24;;;;;;;22.25;11.65;;;9.70;93.10;;;;;;5037065;28;20029;-78
2021/03/25 08:24:17;;;;;;;26.65;12.15;;;9.80;93.00;;;;;;5023595;28;20032;-78
2021/03/25 08:27:03;;;;;;;26.10;11.73;;;9.70;93.00;;;;;;5018876;28;20025;-79
2021/03/25 08:29:40;;;;;;;28.50;12.40;;;9.80;93.00;;;;;;5031274;28;20156;-80
2021/03/25 08:32:12;;;;;;;22.83;12.18;;;9.90;93.00;;;;;;5030643;28;20029;-78
2021/03/25 08:35:12;;;;;;;27.15;13.30;;;9.90;93.20;;;;;;5014557;28;20049;-83
2021/03/25 08:38:15;;;;;;;26.55;13.52;;;10.30;92.60;;;;;;5015888;28;20049;-78
2021/03/25 08:40:55;;;;;;;25.88;12.82;;;10.60;92.10;;;;;;5041984;28;20108;-83
2021/03/25 08:43:26;;;;;;;31.40;15.23;;;10.90;91.60;;;;;;5029598;28;20448;-79
2021/03/25 08:46:07;;;;;;;31.17;15.15;;;11.00;91.30;;;;;;5026432;28;20026;-81
2021/03/25 08:48:37;;;;;;;28.25;15.13;;;11.20;91.30;;;;;;5019062;28;20057;-82
2021/03/25 08:51:03;;;;;;;30.75;16.05;;;;;;;;;;5019648;28;20041;-80
2021/03/25 08:53:45;;;;;;;31.38;16.20;;;11.50;90.80;;;;;;5023782;28;20030;-78
2021/03/25 08:56:34;;;;;;;32.03;16.40;;;11.70;90.60;;;;;;5042870;28;20053;-79
2021/03/25 08:59:03;;;;;;;32.72;17.35;;;11.80;90.10;;;;;;5027693;28;20033;-78
2021/03/25 09:01:41;;;;;;;31.35;17.77;;;11.80;90.30;;;;;;5025679;28;20034;-80
2021/03/25 09:04:09;;;;;;;33.20;18.77;;;12.00;90.10;;;;;;5028793;28;20767;-80
2021/03/25 09:06:38;;;;;;;37.40;17.70;;;12.20;88.90;;;;;;5026642;28;20038;-83
2021/03/25 09:09:16;;;;;;;34.65;18.02;;;12.40;88.20;;;;;;5029340;28;20029;-80
2021/03/25 09:11:42;;;;;;;33.60;17.80;;;12.50;87.80;;;;;;5028864;28;20033;-79
2021/03/25 09:14:19;;;;;;;32.15;17.50;;;12.70;87.60;;;;;;5030222;28;20063;-83
2021/03/25 09:16:45;;;;;;;32.90;17.98;;;12.70;86.50;;;;;;5032759;28;20022;-81
2021/03/25 09:19:23;;;;;;;38.22;19.15;;;12.50;86.50;;;;;;5036195;28;20029;-80
2021/03/25 09:21:49;;;;;;;35.38;19.00;;;12.60;86.50;;;;;;5031697;28;20026;-80
2021/03/25 09:24:15;;;;;;;39.50;19.92;;;15.90;88.50;;;;;;5029107;28;20025;-81
2021/03/25 09:26:41;;;;;;;35.63;19.80;;;12.90;85.80;;;;;;5029917;28;20117;-80
2021/03/25 09:29:10;;;;;;;33.88;19.52;;;13.10;85.50;;;;;;5049056;28;20050;-82
2021/03/25 09:31:37;;;;;;;33.80;19.75;;;14.00;86.60;;;;;;5018362;28;20067;-82
2021/03/25 09:34:21;;;;;;;38.13;19.70;;;13.40;84.10;;;;;;5026425;28;20025;-82
2021/03/25 09:37:17;;;;;;;37.50;19.33;;;13.40;83.30;;;;;;5040529;28;20612;-80
2021/03/25 09:39:43;;;;;;;37.33;20.70;;;13.50;83.10;;;;;;5019714;28;20061;-80
2021/03/25 09:42:15;;;;;;;37.60;19.77;;;13.40;83.10;;;;;;5030675;28;20245;-82
2021/03/25 09:44:42;;;;;;;36.47;20.15;;;14.10;83.40;;;;;;5046608;28;20032;-81
2021/03/25 09:47:10;;;;;;;42.17;21.27;;;13.30;83.30;;;;;;5027307;28;20040;-81
2021/03/25 09:49:48;;;;;;;36.05;18.48;;;13.50;83.00;;;;;;5045238;28;20121;-83
2021/03/25 09:52:22;;;;;;;34.40;18.77;;;13.60;83.00;;;;;;5028992;28;20120;-81
2021/03/25 09:54:53;;;;;;;36.05;19.65;;;13.60;82.80;;;;;;5044848;28;20124;-80
2021/03/25 09:57:26;;;;;;;31.60;18.40;;;13.60;83.00;;;;;;5031627;28;20029;-81
2021/03/25 09:59:59;;;;;;;33.58;20.20;;;13.50;82.60;;;;;;5031503;28;20060;-81
2021/03/25 10:02:37;;;;;;;36.35;18.98;;;13.70;82.20;;;;;;5048542;28;20033;-80
2021/03/25 10:05:28;;;;;;;35.50;18.83;;;13.70;82.60;;;;;;5043463;28;20022;-79
2021/03/25 10:07:58;;;;;;;32.92;18.40;;;13.80;82.00;;;;;;5047296;28;20376;-80
2021/03/25 10:10:24;;;;;;;35.28;19.25;;;;;;;;;;5029662;28;20041;-83
2021/03/25 10:13:00;;;;;;;34.28;18.30;;;14.00;80.80;;;;;;5048619;28;20777;-80
2021/03/25 10:15:41;;;;;;;36.92;19.90;;;14.10;80.80;;;;;;5041159;28;20046;-81
2021/03/25 10:18:16;;;;;;;36.50;18.65;;;14.20;80.30;;;;;;5039498;28;20719;-81
2021/03/25 10:20:47;;;;;;;35.83;19.95;;;14.20;80.80;;;;;;5033418;28;20030;-83
2021/03/25 10:23:44;;;;;;;38.05;20.23;;;14.30;80.30;;;;;;5018424;28;20509;-81
2021/03/25 10:26:13;;;;;;;40.83;20.35;;;14.40;80.50;;;;;;5025776;28;20503;-80
2021/03/25 10:28:41;;;;;;;38.20;21.33;;;14.40;80.10;;;;;;5028562;28;20029;-81
2021/03/25 10:31:23;;;;;;;36.58;21.45;;;14.40;80.10;;;;;;5029709;28;20037;-78
2021/03/25 10:33:52;;;;;;;40.40;21.85;;;14.30;80.40;;;;;;5032690;28;20056;-80
2021/03/25 10:36:23;;;;;;;40.00;22.48;;;14.50;81.40;;;;;;5024394;28;20057;-79
2021/03/25 10:38:54;;;;;;;40.65;21.90;;;16.00;83.20;;;;;;5027426;28;20060;-81
2021/03/25 10:41:21;;;;;;;;;;;14.20;81.30;;;;;;5025564;28;20416;-80
2021/03/25 10:43:50;;;;;;;38.10;20.30;;;;;;;;;;5028835;28;19909;-82
2021/03/25 10:46:32;;;;;;;33.65;19.15;;;14.00;81.30;;;;;;5029595;28;20033;-82
2021/03/25 10:49:06;;;;;;;35.20;19.83;;;15.30;82.00;;;;;;5044539;28;20683;-80
2021/03/25 10:51:38;;;;;;;34.58;18.00;;;14.20;81.00;;;;;;5020521;28;20025;-82
2021/03/25 10:54:28;;;;;;;29.75;16.30;;;14.30;79.20;;;;;;5047955;28;20113;-81
2021/03/25 10:57:16;;;;;;;29.85;16.35;;;14.40;79.70;;;;;;5040121;28;20542;-83
2021/03/25 11:00:00;;;;;;;24.35;15.05;;;14.50;78.40;;;;;;5019743;28;20033;-81
2021/03/25 11:02:29;;;;;;;26.92;13.80;;;14.50;76.80;;;;;;5029251;28;20672;-78
2021/03/25 11:05:04;;;;;;;25.90;13.90;;;14.40;77.30;;;;;;5031237;28;20083;-82
2021/03/25 11:07:39;;;;;;;28.63;16.15;;;14.30;78.60;;;;;;5028296;28;20022;-81
2021/03/25 11:10:06;;;;;;;25.80;13.77;;;14.30;77.40;;;;;;5031862;28;20029;-80
2021/03/25 11:12:34;;;;;;;23.52;13.73;;;14.30;77.40;;;;;;5028922;28;20152;-80
2021/03/25 11:15:08;;;;;;;24.08;12.70;;;14.40;76.70;;;;;;5029123;28;20032;-80
2021/03/25 11:17:41;;;;;;;21.42;12.35;;;14.80;75.00;;;;;;5033318;28;20041;-82
2021/03/25 11:20:14;;;;;;;25.10;12.80;;;14.90;75.40;;;;;;5021501;28;20052;-77
2021/03/25 11:22:42;;;;;;;23.25;13.13;;;14.90;74.20;;;;;;5025128;28;20447;-79
2021/03/25 11:25:16;;;;;;;27.63;13.43;;;14.90;74.00;;;;;;5021786;28;20030;-76
2021/03/25 11:27:45;;;;;;;22.58;13.15;;;14.90;73.80;;;;;;5014991;28;20151;-81
2021/03/25 11:30:33;;;;;;;23.05;13.40;;;15.00;73.20;;;;;;5032381;28;20032;-83
2021/03/25 11:32:59;;;;;;;23.85;13.52;;;15.10;73.00;;;;;;5045850;28;20040;-80
2021/03/25 11:35:34;;;;;;;24.98;14.57;;;15.30;72.80;;;;;;5027791;28;20021;-81
2021/03/25 11:38:19;;;;;;;24.38;13.85;;;15.30;71.50;;;;;;5044615;28;20116;-82
2021/03/25 11:40:47;;;;;;;22.65;14.00;;;15.30;71.50;;;;;;5030273;28;20057;-81
2021/03/25 11:43:37;;;;;;;22.17;12.95;;;17.00;72.40;;;;;;5032885;28;20026;-83
2021/03/25 11:46:02;;;;;;;21.77;12.90;;;15.40;70.80;;;;;;5027140;28;20061;-81
2021/03/25 11:48:32;;;;;;;19.17;11.85;;;15.50;69.50;;;;;;5028681;28;20053;-80
2021/03/25 11:51:18;;;;;;;21.93;11.47;;;17.70;69.90;;;;;;5030369;28;20388;-78
2021/03/25 11:53:55;;;;;;;28.38;12.43;;;15.70;68.90;;;;;;5016724;28;20038;-78
2021/03/25 11:56:27;;;;;;;18.60;11.60;;;15.70;67.20;;;;;;5028970;28;20026;-80
2021/03/25 11:59:17;;;;;;;18.48;11.35;;;15.70;67.70;;;;;;5046310;28;20581;-80
2021/03/25 12:01:46;;;;;;;18.63;11.65;;;15.80;67.70;;;;;;5030996;28;20070;-80
2021/03/25 12:04:14;;;;;;;19.83;12.07;;;16.40;68.10;;;;;;5051583;28;20101;-78
2021/03/25 12:06:58;;;;;;;18.20;10.88;;;15.70;68.00;;;;;;5035987;28;20033;-81
2021/03/25 12:09:26;;;;;;;22.02;12.00;;;15.70;67.90;;;;;;5056786;28;20089;-80
2021/03/25 12:11:52;;;;;;;21.02;11.77;;;15.70;68.10;;;;;;5026715;28;20026;-80
2021/03/25 12:14:23;;;;;;;18.70;10.90;;;15.50;67.00;;;;;;5040060;28;20118;-78
2021/03/25 12:16:54;;;;;;;21.75;11.98;;;18.10;68.90;;;;;;5025490;28;20022;-79
2021/03/25 12:19:20;;;;;;;21.08;12.50;;;15.70;67.20;;;;;;5028887;28;20033;-80
2021/03/25 12:21:45;;;;;;;18.33;11.52;;;12.90;64.30;;;;;;5033407;28;20051;-79
2021/03/25 12:24:12;;;;;;;17.88;11.13;;;16.00;64.70;;;;;;5028103;28;20095;-82
2021/03/25 12:26:37;;;;;;;18.40;11.05;;;16.10;63.80;;;;;;5042901;28;20022;-82
2021/03/25 12:29:03;;;;;;;18.55;10.63;;;16.30;62.80;;;;;;5029167;28;20052;-78
2021/03/25 12:31:36;;;;;;;22.63;10.93;;;16.30;63.20;;;;;;5031620;28;20036;-79
2021/03/25 12:34:03;;;;;;;18.10;10.55;;;16.40;62.40;;;;;;5028955;28;20034;-79
2021/03/25 12:36:29;;;;;;;19.75;10.60;;;16.40;61.90;;;;;;5044835;28;20378;-78
2021/03/25 12:38:55;;;;;;;15.88;9.55;;;;;;;;;;5026965;28;20040;-83
2021/03/25 12:41:39;;;;;;;15.45;9.63;;;16.40;60.00;;;;;;5028275;28;20034;-81
2021/03/25 12:44:07;;;;;;;18.08;10.00;;;16.50;60.90;;;;;;5023577;28;20026;-82
2021/03/25 12:46:33;;;;;;;19.15;10.00;;;16.40;61.80;;;;;;5037688;28;20025;-79
2021/03/25 12:48:59;;;;;;;19.77;9.73;;;16.00;62.10;;;;;;5027932;28;20041;-83
2021/03/25 12:51:25;;;;;;;16.60;8.63;;;15.90;62.40;;;;;;5024230;28;20037;-81
2021/03/25 12:53:51;;;;;;;13.00;7.75;;;15.80;61.40;;;;;;5021985;28;20033;-80
2021/03/25 12:56:21;;;;;;;15.07;7.82;;;16.00;61.40;;;;;;5037740;28;20052;-83
2021/03/25 12:58:47;;;;;;;15.90;8.30;;;16.20;60.60;;;;;;5037495;28;20387;-84
2021/03/25 13:01:15;;;;;;;14.75;7.78;;;16.20;60.30;;;;;;5035389;28;20085;-82
2021/03/25 13:03:43;;;;;;;13.05;7.10;;;16.20;60.30;;;;;;5023850;28;20117;-83
2021/03/25 13:06:10;;;;;;;13.15;6.65;;;16.40;59.30;;;;;;5023980;28;20566;-80
2021/03/25 13:08:39;;;;;;;11.35;5.93;;;16.30;58.30;;;;;;5026444;28;20029;-85
2021/03/25 13:11:07;;;;;;;10.10;5.95;;;16.40;58.30;;;;;;5025457;28;20766;-83
2021/03/25 13:13:33;;;;;;;12.80;6.88;;;16.30;58.30;;;;;;5042760;28;20451;-82
2021/03/25 13:15:59;;;;;;;13.80;7.22;;;16.80;58.50;;;;;;5043690;28;20109;-82
2021/03/25 13:18:25;;;;;;;13.65;7.40;;;16.60;58.00;;;;;;5028312;28;20037;-81
2021/03/25 13:20:52;;;;;;;11.48;7.63;;;19.00;58.80;;;;;;5026801;28;20040;-84